sensor_id;sensor_type;location;lat;lon;timestamp;temperature;humidity
22940;DHT22;11636;52.086;5.090;2024-03-23T00:54:48;7.70;99.90
22940;DHT22;11636;52.086;5.090;2024-03-23T00:57:20;7.70;99.90
22940;DHT22;11636;52.086;5.090;2024-03-23T00:59:52;7.70;99.90
22940;DHT22;11636;52.086;5.090;2024-03-23T01:02:24;7.70;99.90
22940;DHT22;11636;52.086;5.090;2024-03-23T01:04:50;7.60;99.90
22940;DHT22;11636;52.086;5.090;2024-03-23T01:07:22;7.60;99.90
22940;DHT22;11636;52.086;5.090;2024-03-23T01:09:48;7.50;99.90
22940;DHT22;11636;52.086;5.090;2024-03-23T01:12:20;7.50;99.90
22940;DHT22;11636;52.086;5.090;2024-03-23T01:14:53;7.50;99.90
22940;DHT22;11636;52.086;5.090;2024-03-23T01:17:19;7.50;99.90
22940;DHT22;11636;52.086;5.090;2024-03-23T01:19:51;7.40;99.90
22940;DHT22;11636;52.086;5.090;2024-03-23T01:22:17;7.40;99.90
22940;DHT22;11636;52.086;5.090;2024-03-23T01:24:49;7.30;99.90
22940;DHT22;11636;52.086;5.090;2024-03-23T01:27:15;7.20;99.90
22940;DHT22;11636;52.086;5.090;2024-03-23T01:29:41;7.20;99.90
22940;DHT22;11636;52.086;5.090;2024-03-23T01:32:14;7.10;99.90
22940;DHT22;11636;52.086;5.090;2024-03-23T01:34:46;7.10;99.90
22940;DHT22;11636;52.086;5.090;2024-03-23T01:37:12;7.00;99.90
22940;DHT22;11636;52.086;5.090;2024-03-23T01:39:38;7.00;99.90
22940;DHT22;11636;52.086;5.090;2024-03-23T01:42:10;6.90;99.90
22940;DHT22;11636;52.086;5.090;2024-03-23T01:44:36;6.90;99.90
22940;DHT22;11636;52.086;5.090;2024-03-23T01:47:02;6.90;99.90
22940;DHT22;11636;52.086;5.090;2024-03-23T01:49:34;6.80;99.90
22940;DHT22;11636;52.086;5.090;2024-03-23T01:52:06;6.80;99.90
22940;DHT22;11636;52.086;5.090;2024-03-23T01:54:32;6.80;99.90
22940;DHT22;11636;52.086;5.090;2024-03-23T01:56:58;6.70;99.90
22940;DHT22;11636;52.086;5.090;2024-03-23T01:59:32;6.70;99.90
22940;DHT22;11636;52.086;5.090;2024-03-23T02:01:57;6.70;99.90
22940;DHT22;11636;52.086;5.090;2024-03-23T02:04:30;6.70;99.90
22940;DHT22;11636;52.086;5.090;2024-03-23T02:06:56;6.70;99.90
22940;DHT22;11636;52.086;5.090;2024-03-23T02:09:29;6.70;99.90
22940;DHT22;11636;52.086;5.090;2024-03-23T02:11:55;6.60;99.90
22940;DHT22;11636;52.086;5.090;2024-03-23T02:14:27;6.60;99.90
22940;DHT22;11636;52.086;5.090;2024-03-23T02:16:53;6.60;99.90
22940;DHT22;11636;52.086;5.090;2024-03-23T02:19:19;6.60;99.90
22940;DHT22;11636;52.086;5.090;2024-03-23T02:21:51;6.50;99.90
22940;DHT22;11636;52.086;5.090;2024-03-23T02:24:23;6.40;99.90
22940;DHT22;11636;52.086;5.090;2024-03-23T02:26:49;6.40;99.90
22940;DHT22;11636;52.086;5.090;2024-03-23T02:29:15;6.40;99.90
22940;DHT22;11636;52.086;5.090;2024-03-23T02:31:47;6.40;99.90
22940;DHT22;11636;52.086;5.090;2024-03-23T02:34:13;6.30;99.90
22940;DHT22;11636;52.086;5.090;2024-03-23T02:36:45;6.30;99.90
22940;DHT22;11636;52.086;5.090;2024-03-23T02:39:11;6.30;99.90
22940;DHT22;11636;52.086;5.090;2024-03-23T02:41:43;6.20;99.90
22940;DHT22;11636;52.086;5.090;2024-03-23T02:44:09;6.20;99.90
22940;DHT22;11636;52.086;5.090;2024-03-23T02:46:43;6.20;99.90
22940;DHT22;11636;52.086;5.090;2024-03-23T02:49:09;6.20;99.90
22940;DHT22;11636;52.086;5.090;2024-03-23T02:51:35;6.10;99.90
22940;DHT22;11636;52.086;5.090;2024-03-23T02:54:07;6.10;99.90
22940;DHT22;11636;52.086;5.090;2024-03-23T02:56:33;6.10;99.90
22940;DHT22;11636;52.086;5.090;2024-03-23T02:59:05;6.00;99.90
22940;DHT22;11636;52.086;5.090;2024-03-23T03:01:31;6.00;99.90
22940;DHT22;11636;52.086;5.090;2024-03-23T03:04:03;6.00;99.90
22940;DHT22;11636;52.086;5.090;2024-03-23T03:06:37;5.90;99.90
22940;DHT22;11636;52.086;5.090;2024-03-23T03:09:03;5.90;99.90
22940;DHT22;11636;52.086;5.090;2024-03-23T03:11:36;5.90;99.90
22940;DHT22;11636;52.086;5.090;2024-03-23T03:14:08;5.90;99.90
22940;DHT22;11636;52.086;5.090;2024-03-23T03:16:34;5.90;99.90
22940;DHT22;11636;52.086;5.090;2024-03-23T03:19:00;5.90;99.90
22940;DHT22;11636;52.086;5.090;2024-03-23T03:21:34;5.80;99.90
22940;DHT22;11636;52.086;5.090;2024-03-23T03:23:59;5.80;99.90
22940;DHT22;11636;52.086;5.090;2024-03-23T03:26:31;5.70;99.90
22940;DHT22;11636;52.086;5.090;2024-03-23T03:28:58;5.70;99.90
22940;DHT22;11636;52.086;5.090;2024-03-23T03:31:30;5.70;99.90
22940;DHT22;11636;52.086;5.090;2024-03-23T03:33:56;5.70;99.90
22940;DHT22;11636;52.086;5.090;2024-03-23T03:36:28;5.60;99.90
22940;DHT22;11636;52.086;5.090;2024-03-23T03:38:54;5.60;99.90
22940;DHT22;11636;52.086;5.090;2024-03-23T03:41:21;5.60;99.90
22940;DHT22;11636;52.086;5.090;2024-03-23T03:43:53;5.60;99.90
22940;DHT22;11636;52.086;5.090;2024-03-23T03:46:20;5.50;99.90
22940;DHT22;11636;52.086;5.090;2024-03-23T03:48:53;5.50;99.90
22940;DHT22;11636;52.086;5.090;2024-03-23T03:51:25;5.50;99.90
22940;DHT22;11636;52.086;5.090;2024-03-23T03:53:57;5.40;99.90
22940;DHT22;11636;52.086;5.090;2024-03-23T03:56:23;5.40;99.90
22940;DHT22;11636;52.086;5.090;2024-03-23T03:58:55;5.40;99.90
22940;DHT22;11636;52.086;5.090;2024-03-23T04:01:28;5.30;99.90
22940;DHT22;11636;52.086;5.090;2024-03-23T04:03:54;5.20;99.90
22940;DHT22;11636;52.086;5.090;2024-03-23T04:06:27;5.20;99.90
22940;DHT22;11636;52.086;5.090;2024-03-23T04:08:59;5.20;99.90
22940;DHT22;11636;52.086;5.090;2024-03-23T04:11:26;5.20;99.90
22940;DHT22;11636;52.086;5.090;2024-03-23T04:13:51;5.20;99.90
22940;DHT22;11636;52.086;5.090;2024-03-23T04:16:33;5.10;99.90
22940;DHT22;11636;52.086;5.090;2024-03-23T04:19:00;5.10;99.90
22940;DHT22;11636;52.086;5.090;2024-03-23T04:21:33;5.10;99.90
22940;DHT22;11636;52.086;5.090;2024-03-23T04:23:59;5.10;99.90
22940;DHT22;11636;52.086;5.090;2024-03-23T04:26:40;5.10;99.90
22940;DHT22;11636;52.086;5.090;2024-03-23T04:29:06;5.00;99.90
22940;DHT22;11636;52.086;5.090;2024-03-23T04:31:38;5.00;99.90
22940;DHT22;11636;52.086;5.090;2024-03-23T04:34:04;4.90;99.90
22940;DHT22;11636;52.086;5.090;2024-03-23T04:36:30;4.90;99.90
22940;DHT22;11636;52.086;5.090;2024-03-23T04:39:03;4.80;99.90
22940;DHT22;11636;52.086;5.090;2024-03-23T04:41:28;4.80;99.90
22940;DHT22;11636;52.086;5.090;2024-03-23T04:44:02;4.80;99.90
22940;DHT22;11636;52.086;5.090;2024-03-23T04:46:28;4.80;99.90
22940;DHT22;11636;52.086;5.090;2024-03-23T04:48:53;4.80;99.90
22940;DHT22;11636;52.086;5.090;2024-03-23T04:51:26;4.80;99.90
22940;DHT22;11636;52.086;5.090;2024-03-23T04:53:51;4.70;99.90
22940;DHT22;11636;52.086;5.090;2024-03-23T04:56:18;4.70;99.90
22940;DHT22;11636;52.086;5.090;2024-03-23T04:58:50;4.80;99.90
22940;DHT22;11636;52.086;5.090;2024-03-23T05:01:16;4.70;99.90
22940;DHT22;11636;52.086;5.090;2024-03-23T05:03:48;4.70;99.90
22940;DHT22;11636;52.086;5.090;2024-03-23T05:06:22;4.70;99.90
22940;DHT22;11636;52.086;5.090;2024-03-23T05:08:54;4.70;99.90
22940;DHT22;11636;52.086;5.090;2024-03-23T05:11:20;4.80;99.90
22940;DHT22;11636;52.086;5.090;2024-03-23T05:13:53;4.70;99.90
22940;DHT22;11636;52.086;5.090;2024-03-23T05:16:26;4.80;99.90
22940;DHT22;11636;52.086;5.090;2024-03-23T05:18:58;4.80;99.90
22940;DHT22;11636;52.086;5.090;2024-03-23T05:21:30;4.90;99.90
22940;DHT22;11636;52.086;5.090;2024-03-23T05:24:03;4.90;99.90
22940;DHT22;11636;52.086;5.090;2024-03-23T05:26:29;4.90;99.90
22940;DHT22;11636;52.086;5.090;2024-03-23T05:29:01;4.90;99.90
22940;DHT22;11636;52.086;5.090;2024-03-23T05:31:28;4.90;99.90
22940;DHT22;11636;52.086;5.090;2024-03-23T05:34:00;4.90;99.90
22940;DHT22;11636;52.086;5.090;2024-03-23T05:36:26;4.90;99.90
22940;DHT22;11636;52.086;5.090;2024-03-23T05:38:58;5.00;99.90
22940;DHT22;11636;52.086;5.090;2024-03-23T05:41:24;5.00;99.90
22940;DHT22;11636;52.086;5.090;2024-03-23T05:43:57;5.00;99.90
22940;DHT22;11636;52.086;5.090;2024-03-23T05:46:22;5.00;99.90
22940;DHT22;11636;52.086;5.090;2024-03-23T05:49:01;5.10;99.90
22940;DHT22;11636;52.086;5.090;2024-03-23T05:51:27;5.00;99.90
22940;DHT22;11636;52.086;5.090;2024-03-23T05:54:00;5.00;99.90
22940;DHT22;11636;52.086;5.090;2024-03-23T05:56:26;4.90;99.90
22940;DHT22;11636;52.086;5.090;2024-03-23T05:58:59;4.80;99.90
22940;DHT22;11636;52.086;5.090;2024-03-23T06:01:25;4.80;99.90
22940;DHT22;11636;52.086;5.090;2024-03-23T06:04:01;4.80;99.90
22940;DHT22;11636;52.086;5.090;2024-03-23T06:06:34;4.80;99.90
22940;DHT22;11636;52.086;5.090;2024-03-23T06:09:00;4.80;99.90
22940;DHT22;11636;52.086;5.090;2024-03-23T06:11:32;4.80;99.90
22940;DHT22;11636;52.086;5.090;2024-03-23T06:13:57;4.90;99.90
22940;DHT22;11636;52.086;5.090;2024-03-23T06:16:30;4.90;99.90
22940;DHT22;11636;52.086;5.090;2024-03-23T06:18:56;5.00;99.90
22940;DHT22;11636;52.086;5.090;2024-03-23T06:21:29;5.00;99.90
22940;DHT22;11636;52.086;5.090;2024-03-23T06:23:54;5.00;99.90
22940;DHT22;11636;52.086;5.090;2024-03-23T06:26:27;5.10;99.90
22940;DHT22;11636;52.086;5.090;2024-03-23T06:28:59;5.10;99.90
22940;DHT22;11636;52.086;5.090;2024-03-23T06:31:24;5.10;99.90
22940;DHT22;11636;52.086;5.090;2024-03-23T06:33:57;5.10;99.90
22940;DHT22;11636;52.086;5.090;2024-03-23T06:36:22;5.10;99.90
22940;DHT22;11636;52.086;5.090;2024-03-23T06:38:48;5.10;99.90
22940;DHT22;11636;52.086;5.090;2024-03-23T06:41:20;5.20;99.90
22940;DHT22;11636;52.086;5.090;2024-03-23T06:43:47;5.30;99.90
22940;DHT22;11636;52.086;5.090;2024-03-23T06:46:19;5.30;99.90
22940;DHT22;11636;52.086;5.090;2024-03-23T06:48:52;5.40;99.90
22940;DHT22;11636;52.086;5.090;2024-03-23T06:51:24;5.50;99.90
22940;DHT22;11636;52.086;5.090;2024-03-23T06:53:56;5.70;99.90
22940;DHT22;11636;52.086;5.090;2024-03-23T06:56:22;5.80;99.90
22940;DHT22;11636;52.086;5.090;2024-03-23T06:58:54;6.00;99.90
22940;DHT22;11636;52.086;5.090;2024-03-23T07:01:26;6.20;99.90
22940;DHT22;11636;52.086;5.090;2024-03-23T07:03:59;6.30;99.90
22940;DHT22;11636;52.086;5.090;2024-03-23T07:06:31;6.30;99.90
22940;DHT22;11636;52.086;5.090;2024-03-23T07:08:57;6.40;99.90
22940;DHT22;11636;52.086;5.090;2024-03-23T07:11:29;6.40;99.90
22940;DHT22;11636;52.086;5.090;2024-03-23T07:13:54;6.40;99.90
22940;DHT22;11636;52.086;5.090;2024-03-23T07:16:27;6.50;99.90
22940;DHT22;11636;52.086;5.090;2024-03-23T07:18:53;6.60;99.90
22940;DHT22;11636;52.086;5.090;2024-03-23T07:21:19;6.70;99.90
22940;DHT22;11636;52.086;5.090;2024-03-23T07:23:51;6.80;99.90
22940;DHT22;11636;52.086;5.090;2024-03-23T07:26:16;6.90;99.90
22940;DHT22;11636;52.086;5.090;2024-03-23T07:28:43;7.10;99.90
22940;DHT22;11636;52.086;5.090;2024-03-23T07:31:17;7.20;99.90
22940;DHT22;11636;52.086;5.090;2024-03-23T07:33:49;7.20;99.90
22940;DHT22;11636;52.086;5.090;2024-03-23T07:36:15;7.20;99.90
22940;DHT22;11636;52.086;5.090;2024-03-23T07:38:47;7.30;99.90
22940;DHT22;11636;52.086;5.090;2024-03-23T07:41:20;7.50;99.90
22940;DHT22;11636;52.086;5.090;2024-03-23T07:43:53;7.70;99.90
22940;DHT22;11636;52.086;5.090;2024-03-23T07:46:20;7.80;99.90
22940;DHT22;11636;52.086;5.090;2024-03-23T07:48:53;7.70;99.90
22940;DHT22;11636;52.086;5.090;2024-03-23T07:51:26;7.80;99.90
22940;DHT22;11636;52.086;5.090;2024-03-23T07:53:52;7.80;99.90
22940;DHT22;11636;52.086;5.090;2024-03-23T07:56:25;7.80;99.90
22940;DHT22;11636;52.086;5.090;2024-03-23T07:58:51;7.90;99.90
22940;DHT22;11636;52.086;5.090;2024-03-23T08:01:17;8.10;99.90
22940;DHT22;11636;52.086;5.090;2024-03-23T08:03:50;8.00;99.90
22940;DHT22;11636;52.086;5.090;2024-03-23T08:06:17;7.70;99.90
22940;DHT22;11636;52.086;5.090;2024-03-23T08:08:52;7.40;99.90
22940;DHT22;11636;52.086;5.090;2024-03-23T08:11:32;7.30;99.90
22940;DHT22;11636;52.086;5.090;2024-03-23T08:14:06;7.40;99.90
22940;DHT22;11636;52.086;5.090;2024-03-23T08:16:39;7.50;99.90
22940;DHT22;11636;52.086;5.090;2024-03-23T08:19:05;7.70;99.90
22940;DHT22;11636;52.086;5.090;2024-03-23T08:21:30;7.70;99.90
22940;DHT22;11636;52.086;5.090;2024-03-23T08:24:03;7.60;99.90
22940;DHT22;11636;52.086;5.090;2024-03-23T08:26:29;7.70;99.90
22940;DHT22;11636;52.086;5.090;2024-03-23T08:29:01;7.70;99.90
22940;DHT22;11636;52.086;5.090;2024-03-23T08:31:27;7.70;99.90
22940;DHT22;11636;52.086;5.090;2024-03-23T08:33:52;7.80;99.90
22940;DHT22;11636;52.086;5.090;2024-03-23T08:36:25;7.80;99.90
22940;DHT22;11636;52.086;5.090;2024-03-23T08:38:50;7.90;99.90
22940;DHT22;11636;52.086;5.090;2024-03-23T08:41:26;7.80;99.90
22940;DHT22;11636;52.086;5.090;2024-03-23T08:43:52;7.80;99.90
22940;DHT22;11636;52.086;5.090;2024-03-23T08:46:24;7.90;99.90
22940;DHT22;11636;52.086;5.090;2024-03-23T08:48:50;7.90;99.90
22940;DHT22;11636;52.086;5.090;2024-03-23T08:51:24;8.00;99.90
22940;DHT22;11636;52.086;5.090;2024-03-23T08:53:50;8.00;99.90
22940;DHT22;11636;52.086;5.090;2024-03-23T08:56:22;8.00;99.90
22940;DHT22;11636;52.086;5.090;2024-03-23T08:58:48;8.20;99.90
22940;DHT22;11636;52.086;5.090;2024-03-23T09:01:20;8.30;99.90
22940;DHT22;11636;52.086;5.090;2024-03-23T09:03:45;8.50;99.90
22940;DHT22;11636;52.086;5.090;2024-03-23T09:06:14;8.70;99.90
22940;DHT22;11636;52.086;5.090;2024-03-23T09:08:46;8.70;99.90
22940;DHT22;11636;52.086;5.090;2024-03-23T09:11:13;8.70;99.90
22940;DHT22;11636;52.086;5.090;2024-03-23T09:13:46;8.50;99.90
22940;DHT22;11636;52.086;5.090;2024-03-23T09:16:12;8.40;99.90
22940;DHT22;11636;52.086;5.090;2024-03-23T09:18:44;8.60;99.90
22940;DHT22;11636;52.086;5.090;2024-03-23T09:21:12;9.00;99.90
22940;DHT22;11636;52.086;5.090;2024-03-23T09:23:38;9.40;99.90
22940;DHT22;11636;52.086;5.090;2024-03-23T09:26:11;9.50;99.90
22940;DHT22;11636;52.086;5.090;2024-03-23T09:28:37;9.30;99.90
22940;DHT22;11636;52.086;5.090;2024-03-23T09:31:10;9.00;99.90
22940;DHT22;11636;52.086;5.090;2024-03-23T09:33:40;8.90;99.90
22940;DHT22;11636;52.086;5.090;2024-03-23T09:36:12;8.70;99.90
22940;DHT22;11636;52.086;5.090;2024-03-23T09:38:38;8.40;99.90
22940;DHT22;11636;52.086;5.090;2024-03-23T09:41:10;8.20;99.90
22940;DHT22;11636;52.086;5.090;2024-03-23T09:43:36;8.00;99.90
22940;DHT22;11636;52.086;5.090;2024-03-23T09:46:09;7.90;99.90
22940;DHT22;11636;52.086;5.090;2024-03-23T09:48:36;7.80;99.90
22940;DHT22;11636;52.086;5.090;2024-03-23T09:51:02;7.90;99.90
22940;DHT22;11636;52.086;5.090;2024-03-23T09:53:35;8.10;99.90
22940;DHT22;11636;52.086;5.090;2024-03-23T09:56:03;8.40;99.90
22940;DHT22;11636;52.086;5.090;2024-03-23T09:58:28;8.80;99.90
22940;DHT22;11636;52.086;5.090;2024-03-23T10:01:01;9.00;99.90
22940;DHT22;11636;52.086;5.090;2024-03-23T10:03:28;9.00;99.90
22940;DHT22;11636;52.086;5.090;2024-03-23T10:06:02;9.00;99.90
22940;DHT22;11636;52.086;5.090;2024-03-23T10:08:36;9.00;99.90
22940;DHT22;11636;52.086;5.090;2024-03-23T10:11:15;8.90;99.90
22940;DHT22;11636;52.086;5.090;2024-03-23T10:13:43;8.80;99.90
22940;DHT22;11636;52.086;5.090;2024-03-23T10:16:24;8.90;99.90
22940;DHT22;11636;52.086;5.090;2024-03-23T10:18:52;8.90;99.90
22940;DHT22;11636;52.086;5.090;2024-03-23T10:21:24;8.90;99.90
22940;DHT22;11636;52.086;5.090;2024-03-23T10:23:50;9.00;99.90
22940;DHT22;11636;52.086;5.090;2024-03-23T10:26:21;8.90;99.90
22940;DHT22;11636;52.086;5.090;2024-03-23T10:28:59;8.70;99.90
22940;DHT22;11636;52.086;5.090;2024-03-23T10:31:31;8.40;99.90
22940;DHT22;11636;52.086;5.090;2024-03-23T10:34:03;7.90;99.90
22940;DHT22;11636;52.086;5.090;2024-03-23T10:36:30;7.10;99.90
22940;DHT22;11636;52.086;5.090;2024-03-23T10:39:03;6.60;99.90
22940;DHT22;11636;52.086;5.090;2024-03-23T10:41:37;6.30;99.90
22940;DHT22;11636;52.086;5.090;2024-03-23T10:44:11;6.20;99.90
22940;DHT22;11636;52.086;5.090;2024-03-23T10:46:37;6.40;99.90
22940;DHT22;11636;52.086;5.090;2024-03-23T10:49:03;6.70;99.90
22940;DHT22;11636;52.086;5.090;2024-03-23T10:51:37;6.90;99.90
22940;DHT22;11636;52.086;5.090;2024-03-23T10:54:09;7.00;99.90
22940;DHT22;11636;52.086;5.090;2024-03-23T10:56:46;7.10;99.90
22940;DHT22;11636;52.086;5.090;2024-03-23T10:59:14;7.40;99.90
22940;DHT22;11636;52.086;5.090;2024-03-23T11:01:54;7.60;99.90
22940;DHT22;11636;52.086;5.090;2024-03-23T11:04:34;8.10;99.90
22940;DHT22;11636;52.086;5.090;2024-03-23T11:09:59;8.30;99.90
22940;DHT22;11636;52.086;5.090;2024-03-23T11:12:30;8.10;99.90
22940;DHT22;11636;52.086;5.090;2024-03-23T11:15:05;7.90;99.90
22940;DHT22;11636;52.086;5.090;2024-03-23T11:17:41;7.80;99.90
22940;DHT22;11636;52.086;5.090;2024-03-23T11:20:13;7.90;99.90
22940;DHT22;11636;52.086;5.090;2024-03-23T11:22:45;8.10;99.90
22940;DHT22;11636;52.086;5.090;2024-03-23T11:25:25;8.00;99.90
22940;DHT22;11636;52.086;5.090;2024-03-23T11:27:54;8.00;99.90
22940;DHT22;11636;52.086;5.090;2024-03-23T11:30:27;7.90;99.90
22940;DHT22;11636;52.086;5.090;2024-03-23T11:32:57;8.00;99.90
22940;DHT22;11636;52.086;5.090;2024-03-23T11:35:34;8.10;99.90
22940;DHT22;11636;52.086;5.090;2024-03-23T11:40:47;8.20;99.90
22940;DHT22;11636;52.086;5.090;2024-03-23T11:43:20;8.10;99.90
22940;DHT22;11636;52.086;5.090;2024-03-23T11:45:54;8.40;99.90
22940;DHT22;11636;52.086;5.090;2024-03-23T11:48:22;8.80;99.90
22940;DHT22;11636;52.086;5.090;2024-03-23T11:50:57;9.10;99.90
22940;DHT22;11636;52.086;5.090;2024-03-23T11:53:25;9.60;99.90
22940;DHT22;11636;52.086;5.090;2024-03-23T11:55:59;9.80;99.90
22940;DHT22;11636;52.086;5.090;2024-03-23T11:58:32;9.70;99.90
22940;DHT22;11636;52.086;5.090;2024-03-23T12:01:02;9.20;99.90
22940;DHT22;11636;52.086;5.090;2024-03-23T12:03:35;8.90;99.90
22940;DHT22;11636;52.086;5.090;2024-03-23T12:06:08;8.70;99.90
22940;DHT22;11636;52.086;5.090;2024-03-23T12:08:35;8.70;99.90
22940;DHT22;11636;52.086;5.090;2024-03-23T12:11:10;8.80;99.90
22940;DHT22;11636;52.086;5.090;2024-03-23T12:13:38;9.20;99.90
22940;DHT22;11636;52.086;5.090;2024-03-23T12:16:11;9.80;99.90
22940;DHT22;11636;52.086;5.090;2024-03-23T12:18:39;10.00;99.90
22940;DHT22;11636;52.086;5.090;2024-03-23T12:21:06;9.90;99.90
22940;DHT22;11636;52.086;5.090;2024-03-23T12:23:40;9.70;99.90
22940;DHT22;11636;52.086;5.090;2024-03-23T12:26:06;9.50;99.90
22940;DHT22;11636;52.086;5.090;2024-03-23T12:28:38;9.60;99.90
22940;DHT22;11636;52.086;5.090;2024-03-23T12:31:05;9.70;99.90
22940;DHT22;11636;52.086;5.090;2024-03-23T12:33:37;9.70;99.90
22940;DHT22;11636;52.086;5.090;2024-03-23T12:36:03;9.70;99.90
22940;DHT22;11636;52.086;5.090;2024-03-23T12:38:36;9.50;99.90
22940;DHT22;11636;52.086;5.090;2024-03-23T12:41:02;9.80;99.90
22940;DHT22;11636;52.086;5.090;2024-03-23T12:43:30;10.30;99.90
22940;DHT22;11636;52.086;5.090;2024-03-23T12:46:03;10.40;99.90
22940;DHT22;11636;52.086;5.090;2024-03-23T12:48:29;10.40;99.90
22940;DHT22;11636;52.086;5.090;2024-03-23T12:50:55;10.20;99.90
22940;DHT22;11636;52.086;5.090;2024-03-23T12:53:27;9.90;99.90
22940;DHT22;11636;52.086;5.090;2024-03-23T12:55:53;9.70;99.90
22940;DHT22;11636;52.086;5.090;2024-03-23T12:58:25;9.90;99.90
22940;DHT22;11636;52.086;5.090;2024-03-23T13:00:51;9.90;99.90
22940;DHT22;11636;52.086;5.090;2024-03-23T13:03:23;9.80;99.90
22940;DHT22;11636;52.086;5.090;2024-03-23T13:05:55;9.30;99.90
22940;DHT22;11636;52.086;5.090;2024-03-23T13:08:21;8.40;99.90
22940;DHT22;11636;52.086;5.090;2024-03-23T13:10:53;7.70;99.90
22940;DHT22;11636;52.086;5.090;2024-03-23T13:13:21;7.30;99.90
22940;DHT22;11636;52.086;5.090;2024-03-23T13:15:53;7.50;99.90
22940;DHT22;11636;52.086;5.090;2024-03-23T13:18:19;8.00;99.90
22940;DHT22;11636;52.086;5.090;2024-03-23T13:20:51;8.00;99.90
22940;DHT22;11636;52.086;5.090;2024-03-23T13:23:17;8.00;99.90
22940;DHT22;11636;52.086;5.090;2024-03-23T13:25:53;8.20;99.90
22940;DHT22;11636;52.086;5.090;2024-03-23T13:28:20;8.70;99.90
22940;DHT22;11636;52.086;5.090;2024-03-23T13:30:56;8.70;99.90
22940;DHT22;11636;52.086;5.090;2024-03-23T13:33:32;8.60;99.90
22940;DHT22;11636;52.086;5.090;2024-03-23T13:36:05;8.50;99.90
22940;DHT22;11636;52.086;5.090;2024-03-23T13:38:38;8.30;99.90
22940;DHT22;11636;52.086;5.090;2024-03-23T13:41:04;8.20;99.90
22940;DHT22;11636;52.086;5.090;2024-03-23T13:43:38;8.20;99.90
22940;DHT22;11636;52.086;5.090;2024-03-23T13:46:04;8.50;99.90
22940;DHT22;11636;52.086;5.090;2024-03-23T13:48:30;9.20;99.90
22940;DHT22;11636;52.086;5.090;2024-03-23T13:51:03;10.00;99.90
22940;DHT22;11636;52.086;5.090;2024-03-23T13:53:30;10.70;99.90
22940;DHT22;11636;52.086;5.090;2024-03-23T13:56:02;11.00;99.90
22940;DHT22;11636;52.086;5.090;2024-03-23T13:58:35;11.00;99.90
22940;DHT22;11636;52.086;5.090;2024-03-23T14:01:01;11.10;99.90
22940;DHT22;11636;52.086;5.090;2024-03-23T14:03:33;10.80;99.90
22940;DHT22;11636;52.086;5.090;2024-03-23T14:05:59;10.60;99.90
22940;DHT22;11636;52.086;5.090;2024-03-23T14:08:34;10.90;99.90
22940;DHT22;11636;52.086;5.090;2024-03-23T14:11:08;11.60;99.90
22940;DHT22;11636;52.086;5.090;2024-03-23T14:13:41;12.10;99.90
22940;DHT22;11636;52.086;5.090;2024-03-23T14:16:07;12.30;99.90
22940;DHT22;11636;52.086;5.090;2024-03-23T14:18:33;12.30;99.90
22940;DHT22;11636;52.086;5.090;2024-03-23T14:21:05;12.10;99.90
22940;DHT22;11636;52.086;5.090;2024-03-23T14:23:32;11.60;99.90
22940;DHT22;11636;52.086;5.090;2024-03-23T14:26:05;11.30;99.90
22940;DHT22;11636;52.086;5.090;2024-03-23T14:28:38;10.80;99.90
22940;DHT22;11636;52.086;5.090;2024-03-23T14:31:05;10.40;99.90
22940;DHT22;11636;52.086;5.090;2024-03-23T14:33:42;10.00;99.90
22940;DHT22;11636;52.086;5.090;2024-03-23T14:36:16;9.60;99.90
22940;DHT22;11636;52.086;5.090;2024-03-23T14:38:49;9.60;99.90
22940;DHT22;11636;52.086;5.090;2024-03-23T14:41:23;9.60;99.90
22940;DHT22;11636;52.086;5.090;2024-03-23T14:43:49;9.50;99.90
22940;DHT22;11636;52.086;5.090;2024-03-23T14:46:16;9.40;99.90
22940;DHT22;11636;52.086;5.090;2024-03-23T14:48:48;9.40;99.90
22940;DHT22;11636;52.086;5.090;2024-03-23T14:51:20;9.40;99.90
22940;DHT22;11636;52.086;5.090;2024-03-23T14:53:47;9.50;99.90
22940;DHT22;11636;52.086;5.090;2024-03-23T14:56:13;9.50;99.90
22940;DHT22;11636;52.086;5.090;2024-03-23T14:58:52;9.50;99.90
22940;DHT22;11636;52.086;5.090;2024-03-23T15:01:24;9.50;99.90
22940;DHT22;11636;52.086;5.090;2024-03-23T15:03:50;9.70;99.90
22940;DHT22;11636;52.086;5.090;2024-03-23T15:06:25;9.80;99.90
22940;DHT22;11636;52.086;5.090;2024-03-23T15:08:52;9.80;99.90
22940;DHT22;11636;52.086;5.090;2024-03-23T15:11:18;9.70;99.90
22940;DHT22;11636;52.086;5.090;2024-03-23T15:13:51;9.50;99.90
22940;DHT22;11636;52.086;5.090;2024-03-23T15:16:17;9.50;99.90
22940;DHT22;11636;52.086;5.090;2024-03-23T15:18:51;9.50;99.90
22940;DHT22;11636;52.086;5.090;2024-03-23T15:21:17;9.50;99.90
22940;DHT22;11636;52.086;5.090;2024-03-23T15:23:53;9.40;99.90
22940;DHT22;11636;52.086;5.090;2024-03-23T15:26:19;9.30;99.90
22940;DHT22;11636;52.086;5.090;2024-03-23T15:28:49;9.10;99.90
22940;DHT22;11636;52.086;5.090;2024-03-23T15:31:31;8.90;99.90
22940;DHT22;11636;52.086;5.090;2024-03-23T15:34:04;8.80;99.90
22940;DHT22;11636;52.086;5.090;2024-03-23T15:36:30;8.70;99.90
22940;DHT22;11636;52.086;5.090;2024-03-23T15:39:03;8.70;99.90
22940;DHT22;11636;52.086;5.090;2024-03-23T15:41:35;8.70;99.90
22940;DHT22;11636;52.086;5.090;2024-03-23T15:44:02;8.70;99.90
22940;DHT22;11636;52.086;5.090;2024-03-23T15:46:28;8.70;99.90
22940;DHT22;11636;52.086;5.090;2024-03-23T15:49:00;8.70;99.90
22940;DHT22;11636;52.086;5.090;2024-03-23T15:51:27;8.70;99.90
22940;DHT22;11636;52.086;5.090;2024-03-23T15:54:05;8.70;99.90
22940;DHT22;11636;52.086;5.090;2024-03-23T15:56:30;8.90;99.90
22940;DHT22;11636;52.086;5.090;2024-03-23T15:59:02;9.00;99.90
22940;DHT22;11636;52.086;5.090;2024-03-23T16:01:32;9.10;99.90
22940;DHT22;11636;52.086;5.090;2024-03-23T16:04:07;9.20;99.90
22940;DHT22;11636;52.086;5.090;2024-03-23T16:06:33;9.20;99.90
22940;DHT22;11636;52.086;5.090;2024-03-23T16:09:05;9.10;99.90
22940;DHT22;11636;52.086;5.090;2024-03-23T16:11:37;9.00;99.90
22940;DHT22;11636;52.086;5.090;2024-03-23T16:14:03;8.90;99.90
22940;DHT22;11636;52.086;5.090;2024-03-23T16:16:36;8.80;99.90
22940;DHT22;11636;52.086;5.090;2024-03-23T16:19:02;8.80;99.90
22940;DHT22;11636;52.086;5.090;2024-03-23T16:21:28;8.80;99.90
22940;DHT22;11636;52.086;5.090;2024-03-23T16:24:00;8.80;99.90
22940;DHT22;11636;52.086;5.090;2024-03-23T16:26:33;8.70;99.90
22940;DHT22;11636;52.086;5.090;2024-03-23T16:29:05;8.60;99.90
22940;DHT22;11636;52.086;5.090;2024-03-23T16:31:31;8.40;99.90
22940;DHT22;11636;52.086;5.090;2024-03-23T16:34:04;7.90;99.90
22940;DHT22;11636;52.086;5.090;2024-03-23T16:36:30;7.20;99.90
22940;DHT22;11636;52.086;5.090;2024-03-23T16:38:56;6.60;99.90
22940;DHT22;11636;52.086;5.090;2024-03-23T16:41:29;6.20;99.90
22940;DHT22;11636;52.086;5.090;2024-03-23T16:44:01;5.90;99.90
22940;DHT22;11636;52.086;5.090;2024-03-23T16:46:33;5.80;99.90
22940;DHT22;11636;52.086;5.090;2024-03-23T16:48:58;5.70;99.90
22940;DHT22;11636;52.086;5.090;2024-03-23T16:51:31;5.70;99.90
22940;DHT22;11636;52.086;5.090;2024-03-23T16:53:56;5.60;99.90
22940;DHT22;11636;52.086;5.090;2024-03-23T16:56:31;5.60;99.90
22940;DHT22;11636;52.086;5.090;2024-03-23T16:58:57;5.70;99.90
22940;DHT22;11636;52.086;5.090;2024-03-23T17:01:30;5.80;99.90